createdAt,value
2023-04-15T00:00:16.169Z,14.544366
2023-04-15T00:05:16.978Z,14.960993
2023-04-15T00:10:16.476Z,14.858156
2023-04-15T00:15:16.457Z,14.607857
2023-04-15T00:20:16.082Z,14.698582
2023-04-15T00:25:16.035Z,14.206383
2023-04-15T00:30:16.411Z,14.320144
2023-04-15T00:35:16.240Z,14.104965
2023-04-15T00:40:17.037Z,14.824286
2023-04-15T00:45:15.750Z,14.626950
2023-04-15T00:50:15.823Z,14.223404
2023-04-15T00:55:16.273Z,14.158156
2023-04-15T01:00:16.063Z,14.034752
2023-04-15T01:05:15.690Z,13.958865
2023-04-15T01:10:15.867Z,14.171831
2023-04-15T01:15:15.850Z,14.121831
2023-04-15T01:20:16.374Z,14.126241
2023-04-15T01:25:17.248Z,14.206429
2023-04-15T01:30:16.309Z,14.019149
2023-04-15T01:35:16.053Z,13.928369
2023-04-15T01:40:16.175Z,13.974468
2023-04-15T01:45:16.298Z,14.007092
2023-04-15T01:50:15.721Z,13.848936
2023-04-15T01:55:16.178Z,13.837589
2023-04-15T02:00:15.733Z,13.707092
2023-04-15T02:05:16.128Z,13.651064
2023-04-15T02:10:17.255Z,13.558156
2023-04-15T02:15:16.256Z,13.640426
2023-04-15T02:20:16.304Z,13.657746
2023-04-15T02:25:16.907Z,13.675177
2023-04-15T02:30:16.298Z,13.670213
2023-04-15T02:35:15.893Z,13.618310
2023-04-15T02:40:16.323Z,13.580851
2023-04-15T02:45:17.357Z,13.554610
2023-04-15T02:50:17.263Z,13.595745
2023-04-15T02:55:15.999Z,13.499296
2023-04-15T03:00:16.027Z,13.357447
2023-04-15T03:05:16.049Z,13.215603
2023-04-15T03:10:15.772Z,13.143357
2023-04-15T03:15:17.239Z,13.037589
2023-04-15T03:20:17.280Z,12.907801
2023-04-15T03:25:16.485Z,12.772535
2023-04-15T03:30:15.742Z,12.581560
2023-04-15T03:35:16.331Z,12.443262
2023-04-15T03:40:16.543Z,12.400000
2023-04-15T03:45:15.635Z,12.400000
2023-04-15T03:50:16.257Z,12.352778
2023-04-15T03:55:16.416Z,12.235664
2023-04-15T04:00:15.830Z,12.200694
2023-04-15T04:05:15.712Z,12.268531
2023-04-15T04:10:16.479Z,12.149296
2023-04-15T04:15:16.655Z,12.076224
2023-04-15T04:20:15.801Z,12.013986
2023-04-15T04:25:15.893Z,11.972917
2023-04-15T04:30:15.860Z,12.069231
2023-04-15T04:35:16.995Z,11.995833
2023-04-15T04:40:16.514Z,11.896528
2023-04-15T04:45:15.889Z,11.834483
2023-04-15T04:50:16.023Z,11.660000
2023-04-15T04:55:16.379Z,11.560000
2023-04-15T05:00:15.880Z,11.537415
2023-04-15T05:05:15.940Z,11.603401
2023-04-15T05:10:15.616Z,11.604861
2023-04-15T05:15:15.834Z,11.686111
2023-04-15T05:20:16.181Z,11.701408
2023-04-15T05:25:16.536Z,11.604930
2023-04-15T05:30:16.167Z,11.718881
2023-04-15T05:35:16.121Z,11.720139
2023-04-15T05:40:16.765Z,11.590411
2023-04-15T05:45:16.980Z,11.486111
2023-04-15T05:50:15.731Z,11.520833
2023-04-15T05:55:16.571Z,11.408276
2023-04-15T06:00:15.832Z,11.254167
2023-04-15T06:05:16.641Z,11.383099
2023-04-15T06:10:16.191Z,11.558042
2023-04-15T06:15:17.349Z,11.251408
2023-04-15T06:20:16.646Z,11.178169
2023-04-15T06:25:16.885Z,11.141958
2023-04-15T06:30:15.953Z,11.389510
2023-04-15T06:35:16.624Z,10.953793
2023-04-15T06:40:15.889Z,10.761379
2023-04-15T06:45:16.109Z,10.605594
2023-04-15T06:50:16.277Z,10.602098
2023-04-15T06:55:16.050Z,10.501379
2023-04-15T07:00:15.959Z,10.459028
2023-04-15T07:05:15.873Z,10.247917
2023-04-15T07:10:16.677Z,10.142361
2023-04-15T07:15:16.144Z,10.026619
2023-04-15T07:20:16.144Z,10.101429
2023-04-15T07:25:16.316Z,10.199291
2023-04-15T07:30:16.647Z,10.447887
2023-04-15T07:35:16.410Z,10.341844
2023-04-15T07:40:16.012Z,10.113380
2023-04-15T07:45:16.000Z,10.285915
2023-04-15T07:50:16.706Z,10.539716
2023-04-15T07:55:15.832Z,10.760284
2023-04-15T08:00:16.747Z,10.824823
2023-04-15T08:05:17.369Z,10.720423
2023-04-15T08:10:16.668Z,10.683803
2023-04-15T08:15:15.708Z,10.565957
2023-04-15T08:20:16.293Z,10.592958
2023-04-15T08:25:16.862Z,10.669504
2023-04-15T08:30:15.772Z,10.685211
2023-04-15T08:35:17.185Z,10.625532
2023-04-15T08:40:16.008Z,10.613380
2023-04-15T08:45:16.881Z,10.502817
2023-04-15T08:50:17.043Z,10.300704
2023-04-15T08:55:15.744Z,10.264336
2023-04-15T09:00:16.701Z,10.230986
2023-04-15T09:05:16.115Z,10.204225
2023-04-15T09:10:15.766Z,10.114894
2023-04-15T09:15:15.777Z,10.090714
2023-04-15T09:20:15.985Z,10.029927
2023-04-15T09:25:16.935Z,9.853676
2023-04-15T09:30:16.862Z,9.760584
2023-04-15T09:35:17.069Z,9.726087
2023-04-15T09:40:15.998Z,9.697101
2023-04-15T09:45:16.475Z,9.613768
2023-04-15T09:50:16.564Z,9.679710
2023-04-15T09:55:15.815Z,9.592701
2023-04-15T10:00:16.036Z,9.508633
2023-04-15T10:05:17.389Z,9.497101
2023-04-15T10:10:16.800Z,9.464493
2023-04-15T10:15:16.621Z,9.458451
2023-04-15T10:20:16.560Z,9.386957
2023-04-15T10:25:15.793Z,9.323358
2023-04-15T10:30:16.251Z,9.197101
2023-04-15T10:35:15.832Z,9.229710
2023-04-15T10:40:15.878Z,9.246715
2023-04-15T10:45:16.335Z,9.160870
2023-04-15T10:50:16.857Z,9.107246
2023-04-15T10:55:15.914Z,9.081022
2023-04-15T11:00:15.811Z,9.017391
2023-04-15T11:05:16.067Z,8.994928
2023-04-15T11:10:16.467Z,8.911765
2023-04-15T11:15:15.777Z,8.895588
2023-04-15T11:20:16.496Z,8.802206
2023-04-15T11:25:16.686Z,8.799270
2023-04-15T11:30:16.790Z,8.707194
2023-04-15T11:35:15.862Z,8.716788
2023-04-15T11:40:15.932Z,8.731852
2023-04-15T11:45:16.522Z,8.736296
2023-04-15T11:50:17.148Z,8.708889
2023-04-15T11:55:16.217Z,8.687407
2023-04-15T12:00:16.858Z,8.748889
2023-04-15T12:05:16.062Z,8.670370
2023-04-15T12:10:16.828Z,8.633824
2023-04-15T12:15:15.753Z,8.694891
2023-04-15T12:20:16.431Z,8.650725
2023-04-15T12:25:15.983Z,8.650000
2023-04-15T12:30:16.348Z,8.678676
2023-04-15T12:35:16.563Z,8.670714
2023-04-15T12:40:16.206Z,8.655797
2023-04-15T12:45:16.331Z,8.684672
2023-04-15T12:50:16.988Z,8.679562
2023-04-15T12:55:15.847Z,8.650000
2023-04-15T13:00:15.788Z,8.628676
2023-04-15T13:05:16.510Z,8.608088
2023-04-15T13:10:15.880Z,8.666912
2023-04-15T13:15:15.884Z,8.664706
2023-04-15T13:20:15.879Z,8.684559
2023-04-15T13:25:16.871Z,8.572263
2023-04-15T13:30:15.959Z,8.573529
2023-04-15T13:35:15.955Z,8.587500
2023-04-15T13:40:17.256Z,8.600000
2023-04-15T13:45:17.461Z,8.608148
2023-04-15T13:50:16.668Z,8.667647
2023-04-15T13:55:20.376Z,8.715556
2023-04-15T14:00:16.810Z,8.652206
2023-04-15T14:05:17.282Z,8.672794
2023-04-15T14:10:16.462Z,8.598529
2023-04-15T14:15:15.935Z,8.564706
2023-04-15T14:20:17.283Z,8.675000
2023-04-15T14:25:30.582Z,8.667647
2023-04-15T14:30:15.890Z,8.726277
2023-04-15T14:35:15.898Z,8.708824
2023-04-15T14:40:15.976Z,8.758824
2023-04-15T14:45:16.085Z,8.840580
2023-04-15T14:50:16.020Z,8.933088
2023-04-15T14:55:17.015Z,8.944030
2023-04-15T15:00:16.576Z,8.861940
2023-04-15T15:05:16.052Z,8.933083
2023-04-15T15:10:16.087Z,8.960741
2023-04-15T15:15:28.158Z,8.908824
2023-04-15T15:20:15.765Z,9.115441
2023-04-15T15:25:16.065Z,9.012500
2023-04-15T15:30:16.070Z,9.125000
2023-04-15T15:35:16.409Z,9.357353
2023-04-15T15:40:16.174Z,9.335036
2023-04-15T15:45:15.991Z,9.328358
2023-04-15T15:50:15.839Z,9.210294
2023-04-15T15:55:15.734Z,9.279412
2023-04-15T16:00:17.102Z,9.250746
2023-04-15T16:05:16.491Z,9.265441
2023-04-15T16:10:16.223Z,9.389130
2023-04-15T16:15:16.376Z,9.197101
2023-04-15T16:20:16.227Z,9.228777
2023-04-15T16:25:16.237Z,9.302899
2023-04-15T16:30:16.458Z,9.352174
2023-04-15T16:35:16.692Z,9.479562
2023-04-15T16:40:16.221Z,9.598529
2023-04-15T16:45:15.880Z,9.631852
2023-04-15T16:50:15.969Z,9.580000
2023-04-15T16:55:16.850Z,9.642222
2023-04-15T17:00:16.553Z,9.625185
2023-04-15T17:05:16.224Z,9.621168
2023-04-15T17:10:15.742Z,9.682353
2023-04-15T17:15:15.779Z,9.801471
2023-04-15T17:20:16.651Z,9.734559
2023-04-15T17:25:16.282Z,9.800735
2023-04-15T17:30:16.903Z,10.110072
2023-04-15T17:35:15.814Z,10.013768
2023-04-15T17:40:16.131Z,10.063043
2023-04-15T17:45:16.002Z,9.998540
2023-04-15T17:50:16.429Z,10.081884
2023-04-15T17:55:16.496Z,10.003650
2023-04-15T18:00:16.880Z,10.082609
2023-04-15T18:05:16.463Z,10.065942
2023-04-15T18:10:15.816Z,10.222695
2023-04-15T18:15:16.314Z,10.163571
2023-04-15T18:20:16.593Z,10.126950
2023-04-15T18:25:15.867Z,10.380000
2023-04-15T18:30:16.471Z,10.353521
2023-04-15T18:35:16.293Z,10.693007
2023-04-15T18:40:15.952Z,10.855319
2023-04-15T18:45:16.052Z,10.818182
2023-04-15T18:50:16.696Z,10.769231
2023-04-15T18:55:19.009Z,10.955862
2023-04-15T19:00:15.892Z,11.016438
2023-04-15T19:05:15.886Z,10.649315
2023-04-15T19:10:16.067Z,10.842657
2023-04-15T19:15:15.950Z,10.909790
2023-04-15T19:20:16.093Z,11.108451
2023-04-15T19:25:16.136Z,11.077465
2023-04-15T19:30:16.216Z,10.861972
2023-04-15T19:35:16.321Z,11.038028
2023-04-15T19:40:16.021Z,11.446853
2023-04-15T19:45:16.124Z,11.234965
2023-04-15T19:50:16.029Z,11.266667
2023-04-15T19:55:15.745Z,10.907639
2023-04-15T20:00:15.956Z,10.976923
2023-04-15T20:05:15.942Z,10.757931
2023-04-15T20:10:16.234Z,10.884722
2023-04-15T20:15:15.942Z,10.951389
2023-04-15T20:20:16.192Z,10.820423
2023-04-15T20:25:16.362Z,11.077465
2023-04-15T20:30:15.721Z,11.472535
2023-04-15T20:35:15.976Z,10.979021
2023-04-15T20:40:16.287Z,10.760563
2023-04-15T20:45:16.764Z,10.678014
2023-04-15T20:50:16.644Z,11.034507
2023-04-15T20:55:16.484Z,10.764583
2023-04-15T21:00:16.002Z,11.010490
2023-04-15T21:05:16.383Z,11.085417
2023-04-15T21:10:16.733Z,11.354167
2023-04-15T21:15:15.814Z,11.464085
2023-04-15T21:20:16.314Z,11.578723
2023-04-15T21:25:16.620Z,11.513793
2023-04-15T21:30:16.488Z,11.712676
2023-04-15T21:35:16.051Z,11.526761
2023-04-15T21:40:16.230Z,11.092254
2023-04-15T22:00:19.082Z,10.241135
2023-04-15T22:05:16.091Z,10.007353
2023-04-15T22:25:16.882Z,10.171429
2023-04-15T22:30:17.444Z,10.100000
2023-04-15T22:35:16.886Z,10.136842
2023-04-15T22:40:15.736Z,9.909023
2023-04-15T22:45:16.689Z,9.997080
2023-04-15T22:50:15.820Z,10.088489
2023-04-15T22:55:17.365Z,10.372340
2023-04-15T23:00:16.555Z,10.432857
2023-04-15T23:05:16.523Z,10.483099
2023-04-15T23:10:16.832Z,10.194286
2023-04-15T23:15:16.106Z,10.053285
2023-04-15T23:20:15.795Z,9.933582
2023-04-15T23:25:15.938Z,9.911278
2023-04-15T23:30:16.472Z,9.896241
2023-04-15T23:35:15.747Z,10.038235
2023-04-15T23:40:16.535Z,10.262411
2023-04-15T23:45:16.045Z,10.366901
2023-04-15T23:50:16.870Z,10.405674
2023-04-15T23:55:15.779Z,10.138028
